sensor_id;sensor_type;location;lat;lon;timestamp;P1;durP1;ratioP1;P2;durP2;ratioP2
14316;SDS011;7242;50.858;6.586;2022-07-10T00:02:09;6.00;;;1.73;;
14316;SDS011;7242;50.858;6.586;2022-07-10T00:05:10;6.63;;;1.60;;
14316;SDS011;7242;50.858;6.586;2022-07-10T00:08:11;6.43;;;1.53;;
14316;SDS011;7242;50.858;6.586;2022-07-10T00:11:12;6.80;;;1.47;;
14316;SDS011;7242;50.858;6.586;2022-07-10T00:14:12;4.87;;;1.30;;
14316;SDS011;7242;50.858;6.586;2022-07-10T00:17:13;5.17;;;1.50;;
14316;SDS011;7242;50.858;6.586;2022-07-10T00:20:14;3.90;;;1.10;;
14316;SDS011;7242;50.858;6.586;2022-07-10T00:23:15;6.20;;;1.30;;
14316;SDS011;7242;50.858;6.586;2022-07-10T00:26:16;4.67;;;1.37;;
14316;SDS011;7242;50.858;6.586;2022-07-10T00:29:17;4.77;;;1.20;;
14316;SDS011;7242;50.858;6.586;2022-07-10T00:32:17;4.93;;;1.30;;
14316;SDS011;7242;50.858;6.586;2022-07-10T00:35:18;3.43;;;1.03;;
14316;SDS011;7242;50.858;6.586;2022-07-10T00:38:19;4.83;;;1.30;;
14316;SDS011;7242;50.858;6.586;2022-07-10T00:41:20;5.10;;;1.27;;
14316;SDS011;7242;50.858;6.586;2022-07-10T00:44:20;4.20;;;1.13;;
14316;SDS011;7242;50.858;6.586;2022-07-10T00:47:21;4.47;;;1.50;;
14316;SDS011;7242;50.858;6.586;2022-07-10T00:50:22;4.53;;;1.23;;
14316;SDS011;7242;50.858;6.586;2022-07-10T00:53:23;5.90;;;1.50;;
14316;SDS011;7242;50.858;6.586;2022-07-10T00:56:24;5.27;;;1.27;;
14316;SDS011;7242;50.858;6.586;2022-07-10T00:59:26;5.80;;;1.30;;
14316;SDS011;7242;50.858;6.586;2022-07-10T01:02:28;9.47;;;1.80;;
14316;SDS011;7242;50.858;6.586;2022-07-10T01:05:28;5.43;;;1.70;;
14316;SDS011;7242;50.858;6.586;2022-07-10T01:08:29;5.60;;;1.37;;
14316;SDS011;7242;50.858;6.586;2022-07-10T01:11:31;6.17;;;1.30;;
14316;SDS011;7242;50.858;6.586;2022-07-10T01:14:34;2.80;;;1.33;;
14316;SDS011;7242;50.858;6.586;2022-07-10T01:17:37;4.90;;;1.30;;
14316;SDS011;7242;50.858;6.586;2022-07-10T01:20:38;3.17;;;1.37;;
14316;SDS011;7242;50.858;6.586;2022-07-10T01:23:39;3.60;;;1.40;;
14316;SDS011;7242;50.858;6.586;2022-07-10T01:26:40;5.83;;;1.43;;
14316;SDS011;7242;50.858;6.586;2022-07-10T01:29:43;4.23;;;1.30;;
14316;SDS011;7242;50.858;6.586;2022-07-10T01:32:45;2.77;;;1.03;;
14316;SDS011;7242;50.858;6.586;2022-07-10T01:35:45;5.33;;;1.40;;
14316;SDS011;7242;50.858;6.586;2022-07-10T01:38:46;4.47;;;1.30;;
14316;SDS011;7242;50.858;6.586;2022-07-10T01:41:47;3.23;;;1.30;;
14316;SDS011;7242;50.858;6.586;2022-07-10T01:44:48;5.00;;;1.30;;
14316;SDS011;7242;50.858;6.586;2022-07-10T01:47:49;5.93;;;1.60;;
14316;SDS011;7242;50.858;6.586;2022-07-10T01:50:49;4.43;;;1.30;;
14316;SDS011;7242;50.858;6.586;2022-07-10T01:53:50;5.03;;;1.53;;
14316;SDS011;7242;50.858;6.586;2022-07-10T01:56:51;4.97;;;1.53;;
14316;SDS011;7242;50.858;6.586;2022-07-10T01:59:54;6.20;;;1.60;;
14316;SDS011;7242;50.858;6.586;2022-07-10T02:02:55;4.10;;;1.40;;
14316;SDS011;7242;50.858;6.586;2022-07-10T02:06:14;6.40;;;1.47;;
14316;SDS011;7242;50.858;6.586;2022-07-10T02:09:14;3.00;;;1.40;;
14316;SDS011;7242;50.858;6.586;2022-07-10T02:12:15;6.63;;;1.50;;
14316;SDS011;7242;50.858;6.586;2022-07-10T02:15:16;3.50;;;1.30;;
14316;SDS011;7242;50.858;6.586;2022-07-10T02:18:17;6.77;;;1.37;;
14316;SDS011;7242;50.858;6.586;2022-07-10T02:21:17;7.27;;;1.80;;
14316;SDS011;7242;50.858;6.586;2022-07-10T02:24:18;4.47;;;1.33;;
14316;SDS011;7242;50.858;6.586;2022-07-10T02:27:19;5.50;;;1.40;;
14316;SDS011;7242;50.858;6.586;2022-07-10T02:30:20;5.93;;;1.73;;
14316;SDS011;7242;50.858;6.586;2022-07-10T02:33:20;3.03;;;1.40;;
14316;SDS011;7242;50.858;6.586;2022-07-10T02:36:21;6.63;;;1.53;;
14316;SDS011;7242;50.858;6.586;2022-07-10T02:39:22;4.70;;;1.57;;
14316;SDS011;7242;50.858;6.586;2022-07-10T02:42:23;6.03;;;1.50;;
14316;SDS011;7242;50.858;6.586;2022-07-10T02:45:24;4.70;;;1.60;;
14316;SDS011;7242;50.858;6.586;2022-07-10T02:48:24;3.27;;;1.57;;
14316;SDS011;7242;50.858;6.586;2022-07-10T02:51:25;4.00;;;1.40;;
14316;SDS011;7242;50.858;6.586;2022-07-10T02:54:26;5.40;;;1.60;;
14316;SDS011;7242;50.858;6.586;2022-07-10T02:57:27;4.40;;;1.50;;
14316;SDS011;7242;50.858;6.586;2022-07-10T03:00:28;3.67;;;1.47;;
14316;SDS011;7242;50.858;6.586;2022-07-10T03:03:28;3.50;;;1.23;;
14316;SDS011;7242;50.858;6.586;2022-07-10T03:06:29;5.47;;;1.60;;
14316;SDS011;7242;50.858;6.586;2022-07-10T03:09:30;3.37;;;1.70;;
14316;SDS011;7242;50.858;6.586;2022-07-10T03:12:31;3.47;;;1.47;;
14316;SDS011;7242;50.858;6.586;2022-07-10T03:15:32;4.13;;;1.40;;
14316;SDS011;7242;50.858;6.586;2022-07-10T03:18:32;5.43;;;1.63;;
14316;SDS011;7242;50.858;6.586;2022-07-10T03:21:33;2.83;;;1.30;;
14316;SDS011;7242;50.858;6.586;2022-07-10T03:24:34;3.87;;;1.60;;
14316;SDS011;7242;50.858;6.586;2022-07-10T03:27:34;6.87;;;1.60;;
14316;SDS011;7242;50.858;6.586;2022-07-10T03:30:35;6.80;;;1.70;;
14316;SDS011;7242;50.858;6.586;2022-07-10T03:33:36;4.80;;;1.50;;
14316;SDS011;7242;50.858;6.586;2022-07-10T03:36:37;4.13;;;1.57;;
14316;SDS011;7242;50.858;6.586;2022-07-10T03:39:37;7.27;;;1.87;;
14316;SDS011;7242;50.858;6.586;2022-07-10T03:42:38;6.47;;;1.80;;
14316;SDS011;7242;50.858;6.586;2022-07-10T03:45:39;4.70;;;1.70;;
14316;SDS011;7242;50.858;6.586;2022-07-10T03:48:40;4.23;;;1.60;;
14316;SDS011;7242;50.858;6.586;2022-07-10T03:51:41;4.20;;;1.60;;
14316;SDS011;7242;50.858;6.586;2022-07-10T03:54:41;8.40;;;1.77;;
14316;SDS011;7242;50.858;6.586;2022-07-10T03:57:42;5.10;;;1.80;;
14316;SDS011;7242;50.858;6.586;2022-07-10T04:01:02;5.37;;;1.50;;
14316;SDS011;7242;50.858;6.586;2022-07-10T04:04:03;7.60;;;1.97;;
14316;SDS011;7242;50.858;6.586;2022-07-10T04:07:04;4.47;;;1.60;;
14316;SDS011;7242;50.858;6.586;2022-07-10T04:10:06;5.00;;;1.80;;
14316;SDS011;7242;50.858;6.586;2022-07-10T04:13:07;3.90;;;1.43;;
14316;SDS011;7242;50.858;6.586;2022-07-10T04:16:07;5.17;;;1.67;;
14316;SDS011;7242;50.858;6.586;2022-07-10T04:19:12;4.57;;;1.70;;
14316;SDS011;7242;50.858;6.586;2022-07-10T04:22:13;4.50;;;1.60;;
14316;SDS011;7242;50.858;6.586;2022-07-10T04:25:14;6.00;;;1.83;;
14316;SDS011;7242;50.858;6.586;2022-07-10T04:28:15;4.57;;;1.63;;
14316;SDS011;7242;50.858;6.586;2022-07-10T04:31:15;5.57;;;2.10;;
14316;SDS011;7242;50.858;6.586;2022-07-10T04:34:16;6.40;;;1.90;;
14316;SDS011;7242;50.858;6.586;2022-07-10T04:37:17;5.00;;;1.63;;
14316;SDS011;7242;50.858;6.586;2022-07-10T04:40:18;3.73;;;1.47;;
14316;SDS011;7242;50.858;6.586;2022-07-10T04:43:18;6.47;;;1.87;;
14316;SDS011;7242;50.858;6.586;2022-07-10T04:46:19;4.67;;;1.60;;
14316;SDS011;7242;50.858;6.586;2022-07-10T04:49:20;4.50;;;1.80;;
14316;SDS011;7242;50.858;6.586;2022-07-10T04:52:27;4.00;;;1.67;;
14316;SDS011;7242;50.858;6.586;2022-07-10T04:55:27;7.47;;;1.90;;
14316;SDS011;7242;50.858;6.586;2022-07-10T04:58:28;5.20;;;2.10;;
14316;SDS011;7242;50.858;6.586;2022-07-10T05:01:29;3.67;;;1.87;;
14316;SDS011;7242;50.858;6.586;2022-07-10T05:08:52;6.43;;;1.97;;
14316;SDS011;7242;50.858;6.586;2022-07-10T05:11:53;6.63;;;2.23;;
14316;SDS011;7242;50.858;6.586;2022-07-10T05:14:54;6.03;;;1.80;;
14316;SDS011;7242;50.858;6.586;2022-07-10T05:17:55;3.73;;;1.90;;
14316;SDS011;7242;50.858;6.586;2022-07-10T05:20:56;6.83;;;1.80;;
14316;SDS011;7242;50.858;6.586;2022-07-10T05:23:57;3.67;;;1.63;;
14316;SDS011;7242;50.858;6.586;2022-07-10T05:26:58;5.90;;;1.97;;
14316;SDS011;7242;50.858;6.586;2022-07-10T05:29:58;5.57;;;1.97;;
14316;SDS011;7242;50.858;6.586;2022-07-10T05:32:59;6.97;;;2.10;;
14316;SDS011;7242;50.858;6.586;2022-07-10T05:36:00;5.57;;;2.03;;
14316;SDS011;7242;50.858;6.586;2022-07-10T05:39:01;4.90;;;1.90;;
14316;SDS011;7242;50.858;6.586;2022-07-10T05:42:02;7.10;;;1.90;;
14316;SDS011;7242;50.858;6.586;2022-07-10T05:45:03;6.07;;;2.00;;
14316;SDS011;7242;50.858;6.586;2022-07-10T05:48:05;5.13;;;1.67;;
14316;SDS011;7242;50.858;6.586;2022-07-10T05:51:06;5.67;;;1.60;;
14316;SDS011;7242;50.858;6.586;2022-07-10T05:54:07;6.00;;;1.70;;
14316;SDS011;7242;50.858;6.586;2022-07-10T05:57:08;6.30;;;1.40;;
14316;SDS011;7242;50.858;6.586;2022-07-10T06:04:31;3.67;;;1.30;;
14316;SDS011;7242;50.858;6.586;2022-07-10T06:07:32;8.47;;;1.83;;
14316;SDS011;7242;50.858;6.586;2022-07-10T06:10:34;6.73;;;1.77;;
14316;SDS011;7242;50.858;6.586;2022-07-10T06:13:35;4.00;;;1.50;;
14316;SDS011;7242;50.858;6.586;2022-07-10T06:16:35;6.40;;;1.50;;
14316;SDS011;7242;50.858;6.586;2022-07-10T06:19:36;5.17;;;1.33;;
14316;SDS011;7242;50.858;6.586;2022-07-10T06:22:37;6.27;;;1.50;;
14316;SDS011;7242;50.858;6.586;2022-07-10T06:25:38;3.70;;;1.50;;
14316;SDS011;7242;50.858;6.586;2022-07-10T06:28:38;6.33;;;1.67;;
14316;SDS011;7242;50.858;6.586;2022-07-10T06:31:39;4.63;;;1.40;;
14316;SDS011;7242;50.858;6.586;2022-07-10T06:34:40;4.50;;;1.60;;
14316;SDS011;7242;50.858;6.586;2022-07-10T06:37:41;6.53;;;1.80;;
14316;SDS011;7242;50.858;6.586;2022-07-10T06:40:41;7.37;;;1.90;;
14316;SDS011;7242;50.858;6.586;2022-07-10T06:43:43;5.47;;;1.57;;
14316;SDS011;7242;50.858;6.586;2022-07-10T06:46:43;3.63;;;1.20;;
14316;SDS011;7242;50.858;6.586;2022-07-10T06:50:05;7.37;;;1.50;;
14316;SDS011;7242;50.858;6.586;2022-07-10T06:53:07;5.20;;;1.30;;
14316;SDS011;7242;50.858;6.586;2022-07-10T06:56:08;4.27;;;1.60;;
14316;SDS011;7242;50.858;6.586;2022-07-10T06:59:09;3.10;;;1.33;;
14316;SDS011;7242;50.858;6.586;2022-07-10T07:02:09;5.70;;;1.70;;
14316;SDS011;7242;50.858;6.586;2022-07-10T07:05:10;3.00;;;1.40;;
14316;SDS011;7242;50.858;6.586;2022-07-10T07:08:11;4.70;;;1.73;;
14316;SDS011;7242;50.858;6.586;2022-07-10T07:11:13;5.03;;;1.57;;
14316;SDS011;7242;50.858;6.586;2022-07-10T07:14:14;5.87;;;1.50;;
14316;SDS011;7242;50.858;6.586;2022-07-10T07:17:15;4.37;;;1.37;;
14316;SDS011;7242;50.858;6.586;2022-07-10T07:20:25;4.67;;;1.87;;
14316;SDS011;7242;50.858;6.586;2022-07-10T07:23:45;2.60;;;1.30;;
14316;SDS011;7242;50.858;6.586;2022-07-10T07:26:46;4.77;;;1.60;;
14316;SDS011;7242;50.858;6.586;2022-07-10T07:29:47;5.57;;;1.87;;
14316;SDS011;7242;50.858;6.586;2022-07-10T07:32:48;5.20;;;1.57;;
14316;SDS011;7242;50.858;6.586;2022-07-10T07:35:49;3.87;;;1.40;;
14316;SDS011;7242;50.858;6.586;2022-07-10T07:38:49;6.00;;;1.90;;
14316;SDS011;7242;50.858;6.586;2022-07-10T07:41:52;6.27;;;1.53;;
14316;SDS011;7242;50.858;6.586;2022-07-10T07:44:54;6.53;;;1.60;;
14316;SDS011;7242;50.858;6.586;2022-07-10T07:47:56;4.77;;;1.57;;
14316;SDS011;7242;50.858;6.586;2022-07-10T07:50:59;5.90;;;1.50;;
14316;SDS011;7242;50.858;6.586;2022-07-10T07:54:00;5.53;;;1.60;;
14316;SDS011;7242;50.858;6.586;2022-07-10T07:57:00;6.13;;;1.60;;
14316;SDS011;7242;50.858;6.586;2022-07-10T08:00:01;4.50;;;1.43;;
14316;SDS011;7242;50.858;6.586;2022-07-10T08:03:12;5.37;;;1.40;;
14316;SDS011;7242;50.858;6.586;2022-07-10T08:06:12;3.37;;;1.30;;
14316;SDS011;7242;50.858;6.586;2022-07-10T08:09:13;7.70;;;1.60;;
14316;SDS011;7242;50.858;6.586;2022-07-10T08:12:14;3.40;;;1.37;;
14316;SDS011;7242;50.858;6.586;2022-07-10T08:15:16;4.50;;;1.33;;
14316;SDS011;7242;50.858;6.586;2022-07-10T08:18:18;5.53;;;1.30;;
14316;SDS011;7242;50.858;6.586;2022-07-10T08:21:18;4.10;;;1.10;;
14316;SDS011;7242;50.858;6.586;2022-07-10T08:24:19;3.33;;;1.10;;
14316;SDS011;7242;50.858;6.586;2022-07-10T08:27:20;4.80;;;1.30;;
14316;SDS011;7242;50.858;6.586;2022-07-10T08:30:21;4.03;;;1.23;;
14316;SDS011;7242;50.858;6.586;2022-07-10T08:33:21;3.00;;;1.00;;
14316;SDS011;7242;50.858;6.586;2022-07-10T08:36:22;4.80;;;1.30;;
14316;SDS011;7242;50.858;6.586;2022-07-10T08:39:23;3.60;;;1.10;;
14316;SDS011;7242;50.858;6.586;2022-07-10T08:42:24;3.60;;;1.00;;
14316;SDS011;7242;50.858;6.586;2022-07-10T08:45:25;4.83;;;1.20;;
14316;SDS011;7242;50.858;6.586;2022-07-10T08:48:31;5.90;;;1.90;;
14316;SDS011;7242;50.858;6.586;2022-07-10T08:51:41;3.43;;;1.10;;
14316;SDS011;7242;50.858;6.586;2022-07-10T08:54:42;4.07;;;1.20;;
14316;SDS011;7242;50.858;6.586;2022-07-10T08:57:42;3.87;;;1.33;;
14316;SDS011;7242;50.858;6.586;2022-07-10T09:00:44;2.90;;;1.00;;
14316;SDS011;7242;50.858;6.586;2022-07-10T09:03:45;4.07;;;1.07;;
14316;SDS011;7242;50.858;6.586;2022-07-10T09:06:45;7.37;;;1.50;;
14316;SDS011;7242;50.858;6.586;2022-07-10T09:09:56;2.67;;;1.33;;
14316;SDS011;7242;50.858;6.586;2022-07-10T09:12:58;4.40;;;1.20;;
14316;SDS011;7242;50.858;6.586;2022-07-10T09:16:01;6.20;;;1.37;;
14316;SDS011;7242;50.858;6.586;2022-07-10T09:22:25;5.80;;;1.37;;
14316;SDS011;7242;50.858;6.586;2022-07-10T09:25:30;3.83;;;1.53;;
14316;SDS011;7242;50.858;6.586;2022-07-10T09:28:32;5.43;;;1.60;;
14316;SDS011;7242;50.858;6.586;2022-07-10T09:34:53;3.00;;;1.47;;
14316;SDS011;7242;50.858;6.586;2022-07-10T09:38:14;5.77;;;1.53;;
14316;SDS011;7242;50.858;6.586;2022-07-10T09:41:21;3.83;;;1.43;;
14316;SDS011;7242;50.858;6.586;2022-07-10T09:44:24;5.67;;;1.30;;
14316;SDS011;7242;50.858;6.586;2022-07-10T09:47:24;5.93;;;1.47;;
14316;SDS011;7242;50.858;6.586;2022-07-10T09:53:26;3.53;;;1.10;;
14316;SDS011;7242;50.858;6.586;2022-07-10T09:56:31;3.83;;;1.97;;
14316;SDS011;7242;50.858;6.586;2022-07-10T09:59:36;3.70;;;1.30;;
14316;SDS011;7242;50.858;6.586;2022-07-10T10:02:38;3.10;;;1.10;;
14316;SDS011;7242;50.858;6.586;2022-07-10T10:05:42;5.53;;;1.37;;
14316;SDS011;7242;50.858;6.586;2022-07-10T10:11:56;3.87;;;1.30;;
14316;SDS011;7242;50.858;6.586;2022-07-10T10:15:03;4.13;;;1.50;;
14316;SDS011;7242;50.858;6.586;2022-07-10T10:18:05;6.83;;;1.50;;
14316;SDS011;7242;50.858;6.586;2022-07-10T10:21:07;4.27;;;1.20;;
14316;SDS011;7242;50.858;6.586;2022-07-10T10:24:08;3.03;;;1.27;;
14316;SDS011;7242;50.858;6.586;2022-07-10T10:27:10;5.50;;;1.50;;
14316;SDS011;7242;50.858;6.586;2022-07-10T10:30:11;3.23;;;1.40;;
14316;SDS011;7242;50.858;6.586;2022-07-10T10:39:51;4.10;;;1.63;;
14316;SDS011;7242;50.858;6.586;2022-07-10T10:42:53;2.40;;;1.10;;
14316;SDS011;7242;50.858;6.586;2022-07-10T10:45:55;4.60;;;1.40;;
14316;SDS011;7242;50.858;6.586;2022-07-10T10:49:06;4.07;;;1.50;;
14316;SDS011;7242;50.858;6.586;2022-07-10T10:52:10;4.80;;;1.23;;
14316;SDS011;7242;50.858;6.586;2022-07-10T10:55:14;4.40;;;1.50;;
14316;SDS011;7242;50.858;6.586;2022-07-10T10:58:15;3.37;;;1.10;;
14316;SDS011;7242;50.858;6.586;2022-07-10T11:04:21;3.60;;;1.17;;
14316;SDS011;7242;50.858;6.586;2022-07-10T11:10:59;3.47;;;1.00;;
14316;SDS011;7242;50.858;6.586;2022-07-10T11:14:00;3.07;;;1.70;;
14316;SDS011;7242;50.858;6.586;2022-07-10T11:17:03;1.83;;;0.97;;
14316;SDS011;7242;50.858;6.586;2022-07-10T11:20:05;2.47;;;0.80;;
14316;SDS011;7242;50.858;6.586;2022-07-10T11:30:02;3.87;;;1.10;;
14316;SDS011;7242;50.858;6.586;2022-07-10T11:33:04;3.60;;;2.30;;
14316;SDS011;7242;50.858;6.586;2022-07-10T11:36:09;4.10;;;1.20;;
14316;SDS011;7242;50.858;6.586;2022-07-10T11:39:14;3.60;;;1.40;;
14316;SDS011;7242;50.858;6.586;2022-07-10T11:42:16;3.40;;;1.23;;
14316;SDS011;7242;50.858;6.586;2022-07-10T11:45:22;2.80;;;1.00;;
14316;SDS011;7242;50.858;6.586;2022-07-10T11:48:23;2.90;;;1.23;;
14316;SDS011;7242;50.858;6.586;2022-07-10T11:51:28;3.70;;;1.60;;
14316;SDS011;7242;50.858;6.586;2022-07-10T11:54:30;5.17;;;1.50;;
14316;SDS011;7242;50.858;6.586;2022-07-10T11:57:37;6.83;;;1.57;;
14316;SDS011;7242;50.858;6.586;2022-07-10T12:00:41;3.80;;;1.30;;
14316;SDS011;7242;50.858;6.586;2022-07-10T12:03:42;3.07;;;1.30;;
14316;SDS011;7242;50.858;6.586;2022-07-10T12:06:44;5.73;;;1.93;;
14316;SDS011;7242;50.858;6.586;2022-07-10T12:09:52;4.53;;;1.60;;
14316;SDS011;7242;50.858;6.586;2022-07-10T12:12:53;7.20;;;1.50;;
14316;SDS011;7242;50.858;6.586;2022-07-10T12:15:54;3.97;;;1.20;;
14316;SDS011;7242;50.858;6.586;2022-07-10T12:18:54;4.40;;;1.30;;
14316;SDS011;7242;50.858;6.586;2022-07-10T12:21:56;2.37;;;1.10;;
14316;SDS011;7242;50.858;6.586;2022-07-10T12:24:58;4.00;;;1.37;;
14316;SDS011;7242;50.858;6.586;2022-07-10T12:27:59;5.73;;;1.67;;
14316;SDS011;7242;50.858;6.586;2022-07-10T12:31:00;3.87;;;1.23;;
14316;SDS011;7242;50.858;6.586;2022-07-10T12:34:02;3.57;;;1.33;;
14316;SDS011;7242;50.858;6.586;2022-07-10T12:37:11;2.87;;;1.30;;
14316;SDS011;7242;50.858;6.586;2022-07-10T12:40:29;2.60;;;1.00;;
14316;SDS011;7242;50.858;6.586;2022-07-10T12:43:30;3.47;;;1.10;;
14316;SDS011;7242;50.858;6.586;2022-07-10T12:46:31;2.57;;;1.23;;
14316;SDS011;7242;50.858;6.586;2022-07-10T12:49:46;3.23;;;1.23;;
14316;SDS011;7242;50.858;6.586;2022-07-10T12:53:07;5.10;;;1.27;;
14316;SDS011;7242;50.858;6.586;2022-07-10T12:56:09;2.43;;;1.10;;
14316;SDS011;7242;50.858;6.586;2022-07-10T12:59:13;3.00;;;1.30;;
14316;SDS011;7242;50.858;6.586;2022-07-10T13:02:18;3.80;;;1.30;;
14316;SDS011;7242;50.858;6.586;2022-07-10T13:05:28;2.00;;;1.20;;
14316;SDS011;7242;50.858;6.586;2022-07-10T13:08:43;2.87;;;1.20;;
14316;SDS011;7242;50.858;6.586;2022-07-10T13:11:45;5.83;;;2.20;;
14316;SDS011;7242;50.858;6.586;2022-07-10T13:14:45;3.10;;;1.43;;
14316;SDS011;7242;50.858;6.586;2022-07-10T13:17:48;4.07;;;1.67;;
14316;SDS011;7242;50.858;6.586;2022-07-10T13:20:49;2.90;;;1.47;;
14316;SDS011;7242;50.858;6.586;2022-07-10T13:23:51;7.90;;;1.73;;
14316;SDS011;7242;50.858;6.586;2022-07-10T13:26:53;4.17;;;2.80;;
14316;SDS011;7242;50.858;6.586;2022-07-10T13:29:56;4.20;;;1.50;;
14316;SDS011;7242;50.858;6.586;2022-07-10T13:32:57;2.90;;;1.70;;
14316;SDS011;7242;50.858;6.586;2022-07-10T13:35:59;4.70;;;1.40;;
14316;SDS011;7242;50.858;6.586;2022-07-10T13:39:00;4.73;;;1.20;;
14316;SDS011;7242;50.858;6.586;2022-07-10T13:42:01;4.73;;;1.40;;
14316;SDS011;7242;50.858;6.586;2022-07-10T13:45:02;3.03;;;1.60;;
14316;SDS011;7242;50.858;6.586;2022-07-10T13:48:03;4.53;;;1.30;;
14316;SDS011;7242;50.858;6.586;2022-07-10T13:51:04;4.37;;;1.63;;
14316;SDS011;7242;50.858;6.586;2022-07-10T13:54:05;4.57;;;1.50;;
14316;SDS011;7242;50.858;6.586;2022-07-10T13:57:06;3.80;;;1.60;;
14316;SDS011;7242;50.858;6.586;2022-07-10T14:00:06;3.77;;;1.40;;
14316;SDS011;7242;50.858;6.586;2022-07-10T14:03:12;3.43;;;1.50;;
14316;SDS011;7242;50.858;6.586;2022-07-10T14:06:12;3.83;;;1.30;;
14316;SDS011;7242;50.858;6.586;2022-07-10T14:09:14;4.80;;;1.63;;
14316;SDS011;7242;50.858;6.586;2022-07-10T14:12:14;3.70;;;1.40;;
14316;SDS011;7242;50.858;6.586;2022-07-10T14:15:16;4.83;;;2.00;;
14316;SDS011;7242;50.858;6.586;2022-07-10T14:18:17;2.50;;;1.57;;
14316;SDS011;7242;50.858;6.586;2022-07-10T14:21:34;2.60;;;1.17;;
14316;SDS011;7242;50.858;6.586;2022-07-10T14:24:35;5.47;;;1.30;;
14316;SDS011;7242;50.858;6.586;2022-07-10T14:27:36;5.07;;;1.87;;
14316;SDS011;7242;50.858;6.586;2022-07-10T14:30:36;4.03;;;1.40;;
14316;SDS011;7242;50.858;6.586;2022-07-10T14:33:37;5.10;;;1.83;;
14316;SDS011;7242;50.858;6.586;2022-07-10T14:36:38;5.60;;;1.50;;
14316;SDS011;7242;50.858;6.586;2022-07-10T14:39:39;3.40;;;1.40;;
14316;SDS011;7242;50.858;6.586;2022-07-10T14:42:39;2.23;;;1.40;;
14316;SDS011;7242;50.858;6.586;2022-07-10T14:45:40;3.27;;;1.20;;
14316;SDS011;7242;50.858;6.586;2022-07-10T14:48:41;4.67;;;1.50;;
14316;SDS011;7242;50.858;6.586;2022-07-10T14:51:42;3.97;;;1.53;;
14316;SDS011;7242;50.858;6.586;2022-07-10T14:54:43;4.90;;;1.50;;
14316;SDS011;7242;50.858;6.586;2022-07-10T14:57:44;2.70;;;1.30;;
14316;SDS011;7242;50.858;6.586;2022-07-10T15:00:44;3.60;;;1.40;;
14316;SDS011;7242;50.858;6.586;2022-07-10T15:03:46;2.37;;;1.23;;
14316;SDS011;7242;50.858;6.586;2022-07-10T15:06:47;3.77;;;1.33;;
14316;SDS011;7242;50.858;6.586;2022-07-10T15:09:47;3.83;;;1.27;;
14316;SDS011;7242;50.858;6.586;2022-07-10T15:12:48;2.70;;;1.50;;
14316;SDS011;7242;50.858;6.586;2022-07-10T15:15:49;2.20;;;1.20;;
14316;SDS011;7242;50.858;6.586;2022-07-10T15:18:51;6.40;;;1.50;;
14316;SDS011;7242;50.858;6.586;2022-07-10T15:21:52;2.97;;;1.30;;
14316;SDS011;7242;50.858;6.586;2022-07-10T15:24:53;4.23;;;1.70;;
14316;SDS011;7242;50.858;6.586;2022-07-10T15:27:54;2.83;;;1.83;;
14316;SDS011;7242;50.858;6.586;2022-07-10T15:30:55;2.37;;;1.67;;
14316;SDS011;7242;50.858;6.586;2022-07-10T15:33:56;3.47;;;1.53;;
14316;SDS011;7242;50.858;6.586;2022-07-10T15:36:57;3.90;;;1.90;;
14316;SDS011;7242;50.858;6.586;2022-07-10T15:39:58;3.20;;;1.60;;
14316;SDS011;7242;50.858;6.586;2022-07-10T15:42:58;2.83;;;1.40;;
14316;SDS011;7242;50.858;6.586;2022-07-10T15:45:59;2.40;;;1.50;;
14316;SDS011;7242;50.858;6.586;2022-07-10T15:49:00;3.47;;;1.30;;
14316;SDS011;7242;50.858;6.586;2022-07-10T15:52:01;5.30;;;1.60;;
14316;SDS011;7242;50.858;6.586;2022-07-10T15:55:02;3.03;;;1.83;;
14316;SDS011;7242;50.858;6.586;2022-07-10T15:58:03;3.53;;;1.67;;
14316;SDS011;7242;50.858;6.586;2022-07-10T16:01:04;2.57;;;1.40;;
14316;SDS011;7242;50.858;6.586;2022-07-10T16:04:05;2.50;;;1.63;;
14316;SDS011;7242;50.858;6.586;2022-07-10T16:07:06;2.37;;;2.13;;
14316;SDS011;7242;50.858;6.586;2022-07-10T16:10:07;4.60;;;2.63;;
14316;SDS011;7242;50.858;6.586;2022-07-10T16:13:08;4.33;;;1.70;;
14316;SDS011;7242;50.858;6.586;2022-07-10T16:16:11;4.57;;;1.60;;
14316;SDS011;7242;50.858;6.586;2022-07-10T16:19:12;3.50;;;1.80;;
14316;SDS011;7242;50.858;6.586;2022-07-10T16:22:14;3.87;;;1.30;;
14316;SDS011;7242;50.858;6.586;2022-07-10T16:25:14;6.23;;;1.57;;
14316;SDS011;7242;50.858;6.586;2022-07-10T16:28:34;3.37;;;1.40;;
14316;SDS011;7242;50.858;6.586;2022-07-10T16:31:34;2.30;;;1.40;;
14316;SDS011;7242;50.858;6.586;2022-07-10T16:34:39;2.53;;;1.50;;
14316;SDS011;7242;50.858;6.586;2022-07-10T16:37:40;2.47;;;1.20;;
14316;SDS011;7242;50.858;6.586;2022-07-10T16:40:44;2.03;;;1.40;;
14316;SDS011;7242;50.858;6.586;2022-07-10T16:43:45;1.67;;;1.20;;
14316;SDS011;7242;50.858;6.586;2022-07-10T16:46:46;2.63;;;1.20;;
14316;SDS011;7242;50.858;6.586;2022-07-10T16:49:47;2.87;;;1.20;;
14316;SDS011;7242;50.858;6.586;2022-07-10T16:52:48;2.63;;;1.20;;
14316;SDS011;7242;50.858;6.586;2022-07-10T16:55:49;4.10;;;1.83;;
14316;SDS011;7242;50.858;6.586;2022-07-10T16:58:51;3.93;;;1.60;;
14316;SDS011;7242;50.858;6.586;2022-07-10T17:01:51;5.83;;;1.70;;
14316;SDS011;7242;50.858;6.586;2022-07-10T17:04:52;2.20;;;1.40;;
14316;SDS011;7242;50.858;6.586;2022-07-10T17:07:53;8.20;;;7.40;;
14316;SDS011;7242;50.858;6.586;2022-07-10T17:10:54;25.93;;;21.67;;
14316;SDS011;7242;50.858;6.586;2022-07-10T17:13:54;15.37;;;11.90;;
14316;SDS011;7242;50.858;6.586;2022-07-10T17:16:55;4.90;;;3.73;;
14316;SDS011;7242;50.858;6.586;2022-07-10T17:19:58;2.13;;;1.30;;
14316;SDS011;7242;50.858;6.586;2022-07-10T17:22:59;5.53;;;2.53;;
14316;SDS011;7242;50.858;6.586;2022-07-10T17:26:00;2.90;;;1.30;;
14316;SDS011;7242;50.858;6.586;2022-07-10T17:29:01;3.97;;;1.37;;
14316;SDS011;7242;50.858;6.586;2022-07-10T17:32:02;5.47;;;1.80;;
14316;SDS011;7242;50.858;6.586;2022-07-10T17:35:03;2.33;;;1.40;;
14316;SDS011;7242;50.858;6.586;2022-07-10T17:38:04;4.63;;;4.23;;
14316;SDS011;7242;50.858;6.586;2022-07-10T17:41:05;2.53;;;1.33;;
14316;SDS011;7242;50.858;6.586;2022-07-10T17:44:06;2.47;;;1.73;;
14316;SDS011;7242;50.858;6.586;2022-07-10T17:47:08;3.13;;;1.13;;
14316;SDS011;7242;50.858;6.586;2022-07-10T17:50:08;1.30;;;1.10;;
14316;SDS011;7242;50.858;6.586;2022-07-10T17:53:09;2.23;;;1.03;;
14316;SDS011;7242;50.858;6.586;2022-07-10T17:56:10;4.97;;;1.20;;
14316;SDS011;7242;50.858;6.586;2022-07-10T17:59:11;3.30;;;1.30;;
14316;SDS011;7242;50.858;6.586;2022-07-10T18:02:12;9.33;;;2.07;;
14316;SDS011;7242;50.858;6.586;2022-07-10T18:05:13;3.93;;;1.10;;
14316;SDS011;7242;50.858;6.586;2022-07-10T18:08:14;2.93;;;1.10;;
14316;SDS011;7242;50.858;6.586;2022-07-10T18:11:16;3.13;;;1.20;;
14316;SDS011;7242;50.858;6.586;2022-07-10T18:14:18;3.53;;;1.37;;
14316;SDS011;7242;50.858;6.586;2022-07-10T18:17:19;1.97;;;1.37;;
14316;SDS011;7242;50.858;6.586;2022-07-10T18:20:20;5.30;;;1.40;;
14316;SDS011;7242;50.858;6.586;2022-07-10T18:23:21;3.03;;;1.10;;
14316;SDS011;7242;50.858;6.586;2022-07-10T18:26:22;2.00;;;1.00;;
14316;SDS011;7242;50.858;6.586;2022-07-10T18:29:23;1.37;;;1.00;;
14316;SDS011;7242;50.858;6.586;2022-07-10T18:32:24;2.47;;;1.07;;
14316;SDS011;7242;50.858;6.586;2022-07-10T18:35:45;1.93;;;1.30;;
14316;SDS011;7242;50.858;6.586;2022-07-10T18:38:46;4.00;;;1.10;;
14316;SDS011;7242;50.858;6.586;2022-07-10T18:41:46;1.83;;;1.00;;
14316;SDS011;7242;50.858;6.586;2022-07-10T18:44:47;1.57;;;0.90;;
14316;SDS011;7242;50.858;6.586;2022-07-10T18:47:48;7.50;;;1.10;;
14316;SDS011;7242;50.858;6.586;2022-07-10T18:50:49;4.63;;;1.17;;
14316;SDS011;7242;50.858;6.586;2022-07-10T18:53:50;2.57;;;1.30;;
14316;SDS011;7242;50.858;6.586;2022-07-10T18:56:54;1.37;;;1.07;;
14316;SDS011;7242;50.858;6.586;2022-07-10T18:59:55;3.57;;;1.50;;
14316;SDS011;7242;50.858;6.586;2022-07-10T19:02:55;3.23;;;1.10;;
14316;SDS011;7242;50.858;6.586;2022-07-10T19:05:56;2.07;;;1.10;;
14316;SDS011;7242;50.858;6.586;2022-07-10T19:08:57;2.60;;;1.30;;
14316;SDS011;7242;50.858;6.586;2022-07-10T19:11:58;2.33;;;1.27;;
14316;SDS011;7242;50.858;6.586;2022-07-10T19:15:02;2.77;;;1.20;;